sensor_id;sensor_type;location;lat;lon;timestamp;P1;durP1;ratioP1;P2;durP2;ratioP2
7205;SDS011;3644;53.480;10.004;2022-12-18T00:01:19;20.30;;;11.47;;
7205;SDS011;3644;53.480;10.004;2022-12-18T00:03:47;22.27;;;12.77;;
7205;SDS011;3644;53.480;10.004;2022-12-18T00:06:13;20.57;;;11.57;;
7205;SDS011;3644;53.480;10.004;2022-12-18T00:08:40;20.30;;;10.03;;
7205;SDS011;3644;53.480;10.004;2022-12-18T00:11:07;16.33;;;11.40;;
7205;SDS011;3644;53.480;10.004;2022-12-18T00:13:35;16.40;;;9.83;;
7205;SDS011;3644;53.480;10.004;2022-12-18T00:16:01;18.67;;;10.17;;
7205;SDS011;3644;53.480;10.004;2022-12-18T00:18:28;22.10;;;12.30;;
7205;SDS011;3644;53.480;10.004;2022-12-18T00:20:54;23.10;;;11.80;;
7205;SDS011;3644;53.480;10.004;2022-12-18T00:23:25;21.20;;;12.90;;
7205;SDS011;3644;53.480;10.004;2022-12-18T00:25:51;25.00;;;11.50;;
7205;SDS011;3644;53.480;10.004;2022-12-18T00:28:16;21.10;;;12.30;;
7205;SDS011;3644;53.480;10.004;2022-12-18T00:30:42;18.23;;;10.90;;
7205;SDS011;3644;53.480;10.004;2022-12-18T00:33:07;20.03;;;11.03;;
7205;SDS011;3644;53.480;10.004;2022-12-18T00:35:33;18.53;;;11.00;;
7205;SDS011;3644;53.480;10.004;2022-12-18T00:37:58;21.50;;;11.70;;
7205;SDS011;3644;53.480;10.004;2022-12-18T00:40:24;23.30;;;11.70;;
7205;SDS011;3644;53.480;10.004;2022-12-18T00:42:49;29.40;;;10.93;;
7205;SDS011;3644;53.480;10.004;2022-12-18T00:45:27;18.63;;;12.23;;
7205;SDS011;3644;53.480;10.004;2022-12-18T00:47:55;23.60;;;11.50;;
7205;SDS011;3644;53.480;10.004;2022-12-18T00:50:21;22.93;;;10.73;;
7205;SDS011;3644;53.480;10.004;2022-12-18T00:52:48;16.80;;;10.07;;
7205;SDS011;3644;53.480;10.004;2022-12-18T00:55:15;29.60;;;11.40;;
7205;SDS011;3644;53.480;10.004;2022-12-18T00:57:41;20.70;;;10.70;;
7205;SDS011;3644;53.480;10.004;2022-12-18T01:00:07;20.00;;;11.00;;
7205;SDS011;3644;53.480;10.004;2022-12-18T01:02:35;19.80;;;11.93;;
7205;SDS011;3644;53.480;10.004;2022-12-18T01:05:00;21.10;;;11.40;;
7205;SDS011;3644;53.480;10.004;2022-12-18T01:07:26;19.97;;;11.57;;
7205;SDS011;3644;53.480;10.004;2022-12-18T01:09:52;21.17;;;11.70;;
7205;SDS011;3644;53.480;10.004;2022-12-18T01:12:17;18.37;;;10.80;;
7205;SDS011;3644;53.480;10.004;2022-12-18T01:14:43;16.67;;;10.73;;
7205;SDS011;3644;53.480;10.004;2022-12-18T01:17:08;22.00;;;10.13;;
7205;SDS011;3644;53.480;10.004;2022-12-18T01:19:34;27.67;;;10.90;;
7205;SDS011;3644;53.480;10.004;2022-12-18T01:21:59;16.93;;;10.30;;
7205;SDS011;3644;53.480;10.004;2022-12-18T01:24:25;15.70;;;10.50;;
7205;SDS011;3644;53.480;10.004;2022-12-18T01:26:50;17.93;;;10.53;;
7205;SDS011;3644;53.480;10.004;2022-12-18T01:29:16;21.00;;;10.83;;
7205;SDS011;3644;53.480;10.004;2022-12-18T01:31:41;20.63;;;11.67;;
7205;SDS011;3644;53.480;10.004;2022-12-18T01:34:07;18.50;;;9.43;;
7205;SDS011;3644;53.480;10.004;2022-12-18T01:36:34;20.60;;;11.13;;
7205;SDS011;3644;53.480;10.004;2022-12-18T01:39:03;19.40;;;11.10;;
7205;SDS011;3644;53.480;10.004;2022-12-18T01:41:31;20.40;;;10.90;;
7205;SDS011;3644;53.480;10.004;2022-12-18T01:47:12;20.30;;;10.90;;
7205;SDS011;3644;53.480;10.004;2022-12-18T01:49:44;16.53;;;10.40;;
7205;SDS011;3644;53.480;10.004;2022-12-18T01:52:10;16.00;;;10.30;;
7205;SDS011;3644;53.480;10.004;2022-12-18T01:54:36;25.63;;;11.87;;
7205;SDS011;3644;53.480;10.004;2022-12-18T01:57:01;16.63;;;9.93;;
7205;SDS011;3644;53.480;10.004;2022-12-18T01:59:27;17.13;;;9.37;;
7205;SDS011;3644;53.480;10.004;2022-12-18T02:01:54;17.40;;;10.20;;
7205;SDS011;3644;53.480;10.004;2022-12-18T02:04:24;17.77;;;10.57;;
7205;SDS011;3644;53.480;10.004;2022-12-18T02:06:53;16.37;;;9.67;;
7205;SDS011;3644;53.480;10.004;2022-12-18T02:12:34;21.47;;;9.47;;
7205;SDS011;3644;53.480;10.004;2022-12-18T02:15:15;15.83;;;9.67;;
7205;SDS011;3644;53.480;10.004;2022-12-18T02:17:53;16.43;;;11.00;;
7205;SDS011;3644;53.480;10.004;2022-12-18T02:20:21;17.27;;;10.90;;
7205;SDS011;3644;53.480;10.004;2022-12-18T02:25:34;16.73;;;9.23;;
7205;SDS011;3644;53.480;10.004;2022-12-18T02:28:22;16.87;;;9.60;;
7205;SDS011;3644;53.480;10.004;2022-12-18T02:30:53;13.67;;;8.90;;
7205;SDS011;3644;53.480;10.004;2022-12-18T02:33:25;15.37;;;8.90;;
7205;SDS011;3644;53.480;10.004;2022-12-18T02:35:53;18.33;;;9.87;;
7205;SDS011;3644;53.480;10.004;2022-12-18T02:38:20;14.53;;;9.00;;
7205;SDS011;3644;53.480;10.004;2022-12-18T02:40:46;16.27;;;9.70;;
7205;SDS011;3644;53.480;10.004;2022-12-18T02:43:14;15.43;;;8.57;;
7205;SDS011;3644;53.480;10.004;2022-12-18T02:45:50;18.70;;;10.03;;
7205;SDS011;3644;53.480;10.004;2022-12-18T02:48:20;17.73;;;9.67;;
7205;SDS011;3644;53.480;10.004;2022-12-18T02:51:03;17.07;;;9.80;;
7205;SDS011;3644;53.480;10.004;2022-12-18T02:53:57;15.73;;;9.67;;
7205;SDS011;3644;53.480;10.004;2022-12-18T02:56:30;28.70;;;11.30;;
7205;SDS011;3644;53.480;10.004;2022-12-18T02:59:07;17.47;;;9.67;;
7205;SDS011;3644;53.480;10.004;2022-12-18T03:01:40;15.83;;;9.00;;
7205;SDS011;3644;53.480;10.004;2022-12-18T03:04:25;17.93;;;9.73;;
7205;SDS011;3644;53.480;10.004;2022-12-18T03:06:56;10.87;;;8.67;;
7205;SDS011;3644;53.480;10.004;2022-12-18T03:09:45;15.87;;;8.90;;
7205;SDS011;3644;53.480;10.004;2022-12-18T03:12:14;17.70;;;8.13;;
7205;SDS011;3644;53.480;10.004;2022-12-18T03:14:47;16.20;;;9.83;;
7205;SDS011;3644;53.480;10.004;2022-12-18T03:17:18;20.70;;;10.53;;
7205;SDS011;3644;53.480;10.004;2022-12-18T03:19:45;16.90;;;9.30;;
7205;SDS011;3644;53.480;10.004;2022-12-18T03:22:12;16.07;;;9.10;;
7205;SDS011;3644;53.480;10.004;2022-12-18T03:24:41;15.53;;;10.13;;
7205;SDS011;3644;53.480;10.004;2022-12-18T03:27:08;19.73;;;9.60;;
7205;SDS011;3644;53.480;10.004;2022-12-18T03:29:42;21.50;;;9.50;;
7205;SDS011;3644;53.480;10.004;2022-12-18T03:32:11;15.67;;;9.83;;
7205;SDS011;3644;53.480;10.004;2022-12-18T03:34:42;17.03;;;10.30;;
7205;SDS011;3644;53.480;10.004;2022-12-18T03:37:11;25.03;;;9.67;;
7205;SDS011;3644;53.480;10.004;2022-12-18T03:39:37;16.23;;;8.33;;
7205;SDS011;3644;53.480;10.004;2022-12-18T03:42:25;18.47;;;10.17;;
7205;SDS011;3644;53.480;10.004;2022-12-18T03:45:19;15.73;;;8.53;;
7205;SDS011;3644;53.480;10.004;2022-12-18T03:48:06;29.30;;;10.87;;
7205;SDS011;3644;53.480;10.004;2022-12-18T03:50:37;22.67;;;8.93;;
7205;SDS011;3644;53.480;10.004;2022-12-18T03:53:17;18.43;;;9.13;;
7205;SDS011;3644;53.480;10.004;2022-12-18T03:56:02;13.13;;;8.13;;
7205;SDS011;3644;53.480;10.004;2022-12-18T03:58:29;14.30;;;8.20;;
7205;SDS011;3644;53.480;10.004;2022-12-18T04:00:58;15.70;;;9.47;;
7205;SDS011;3644;53.480;10.004;2022-12-18T04:03:28;11.67;;;8.03;;
7205;SDS011;3644;53.480;10.004;2022-12-18T04:05:56;13.10;;;8.20;;
7205;SDS011;3644;53.480;10.004;2022-12-18T04:08:23;16.50;;;8.57;;
7205;SDS011;3644;53.480;10.004;2022-12-18T04:10:50;9.23;;;7.97;;
7205;SDS011;3644;53.480;10.004;2022-12-18T04:13:22;17.30;;;9.60;;
7205;SDS011;3644;53.480;10.004;2022-12-18T04:15:48;14.60;;;9.37;;
7205;SDS011;3644;53.480;10.004;2022-12-18T04:18:14;15.00;;;8.47;;
7205;SDS011;3644;53.480;10.004;2022-12-18T04:20:39;19.13;;;9.30;;
7205;SDS011;3644;53.480;10.004;2022-12-18T04:23:05;11.20;;;8.47;;
7205;SDS011;3644;53.480;10.004;2022-12-18T04:25:30;14.37;;;8.73;;
7205;SDS011;3644;53.480;10.004;2022-12-18T04:27:56;16.17;;;9.23;;
7205;SDS011;3644;53.480;10.004;2022-12-18T04:30:21;20.33;;;9.03;;
7205;SDS011;3644;53.480;10.004;2022-12-18T04:32:47;13.43;;;8.93;;
7205;SDS011;3644;53.480;10.004;2022-12-18T04:35:12;14.63;;;7.63;;
7205;SDS011;3644;53.480;10.004;2022-12-18T04:37:38;13.50;;;7.93;;
7205;SDS011;3644;53.480;10.004;2022-12-18T04:40:04;17.07;;;9.20;;
7205;SDS011;3644;53.480;10.004;2022-12-18T04:42:29;13.90;;;8.57;;
7205;SDS011;3644;53.480;10.004;2022-12-18T04:44:55;17.97;;;8.83;;
7205;SDS011;3644;53.480;10.004;2022-12-18T04:47:20;16.87;;;9.53;;
7205;SDS011;3644;53.480;10.004;2022-12-18T04:49:46;17.47;;;9.47;;
7205;SDS011;3644;53.480;10.004;2022-12-18T04:52:11;12.10;;;8.30;;
7205;SDS011;3644;53.480;10.004;2022-12-18T04:54:37;17.40;;;10.10;;
7205;SDS011;3644;53.480;10.004;2022-12-18T04:57:02;14.70;;;9.20;;
7205;SDS011;3644;53.480;10.004;2022-12-18T04:59:28;18.83;;;8.83;;
7205;SDS011;3644;53.480;10.004;2022-12-18T05:01:53;18.20;;;9.90;;
7205;SDS011;3644;53.480;10.004;2022-12-18T05:04:19;12.23;;;8.37;;
7205;SDS011;3644;53.480;10.004;2022-12-18T05:06:44;19.43;;;9.60;;
7205;SDS011;3644;53.480;10.004;2022-12-18T05:09:10;18.73;;;10.07;;
7205;SDS011;3644;53.480;10.004;2022-12-18T05:11:35;13.10;;;8.87;;
7205;SDS011;3644;53.480;10.004;2022-12-18T05:14:01;13.73;;;8.17;;
7205;SDS011;3644;53.480;10.004;2022-12-18T05:16:26;12.37;;;7.43;;
7205;SDS011;3644;53.480;10.004;2022-12-18T05:18:52;19.00;;;8.87;;
7205;SDS011;3644;53.480;10.004;2022-12-18T05:21:17;21.00;;;9.20;;
7205;SDS011;3644;53.480;10.004;2022-12-18T05:23:43;13.33;;;8.93;;
7205;SDS011;3644;53.480;10.004;2022-12-18T05:26:08;14.70;;;7.50;;
7205;SDS011;3644;53.480;10.004;2022-12-18T05:28:38;13.03;;;8.60;;
7205;SDS011;3644;53.480;10.004;2022-12-18T05:31:04;16.37;;;8.53;;
7205;SDS011;3644;53.480;10.004;2022-12-18T05:33:31;12.13;;;7.70;;
7205;SDS011;3644;53.480;10.004;2022-12-18T05:35:59;16.17;;;8.30;;
7205;SDS011;3644;53.480;10.004;2022-12-18T05:38:30;15.43;;;9.37;;
7205;SDS011;3644;53.480;10.004;2022-12-18T05:40:57;14.60;;;9.30;;
7205;SDS011;3644;53.480;10.004;2022-12-18T05:43:23;18.10;;;10.13;;
7205;SDS011;3644;53.480;10.004;2022-12-18T05:45:50;17.07;;;9.57;;
7205;SDS011;3644;53.480;10.004;2022-12-18T05:48:16;14.23;;;7.77;;
7205;SDS011;3644;53.480;10.004;2022-12-18T05:50:43;17.53;;;10.00;;
7205;SDS011;3644;53.480;10.004;2022-12-18T05:53:14;12.53;;;8.20;;
7205;SDS011;3644;53.480;10.004;2022-12-18T05:55:41;15.00;;;8.50;;
7205;SDS011;3644;53.480;10.004;2022-12-18T05:58:09;15.60;;;9.50;;
7205;SDS011;3644;53.480;10.004;2022-12-18T06:00:39;24.13;;;9.73;;
7205;SDS011;3644;53.480;10.004;2022-12-18T06:03:08;14.73;;;8.43;;
7205;SDS011;3644;53.480;10.004;2022-12-18T06:05:38;17.20;;;8.60;;
7205;SDS011;3644;53.480;10.004;2022-12-18T06:08:05;18.40;;;10.00;;
7205;SDS011;3644;53.480;10.004;2022-12-18T06:10:31;22.20;;;9.50;;
7205;SDS011;3644;53.480;10.004;2022-12-18T06:12:56;16.90;;;8.77;;
7205;SDS011;3644;53.480;10.004;2022-12-18T06:15:22;16.20;;;9.03;;
7205;SDS011;3644;53.480;10.004;2022-12-18T06:17:47;18.53;;;10.17;;
7205;SDS011;3644;53.480;10.004;2022-12-18T06:20:13;12.37;;;8.77;;
7205;SDS011;3644;53.480;10.004;2022-12-18T06:22:38;11.97;;;8.93;;
7205;SDS011;3644;53.480;10.004;2022-12-18T06:25:04;14.27;;;8.30;;
7205;SDS011;3644;53.480;10.004;2022-12-18T06:27:30;15.97;;;9.57;;
7205;SDS011;3644;53.480;10.004;2022-12-18T06:29:56;17.90;;;8.10;;
7205;SDS011;3644;53.480;10.004;2022-12-18T06:32:22;15.43;;;8.57;;
7205;SDS011;3644;53.480;10.004;2022-12-18T06:34:47;11.50;;;8.10;;
7205;SDS011;3644;53.480;10.004;2022-12-18T06:37:13;15.73;;;9.70;;
7205;SDS011;3644;53.480;10.004;2022-12-18T06:39:38;19.27;;;9.57;;
7205;SDS011;3644;53.480;10.004;2022-12-18T06:42:04;12.37;;;9.20;;
7205;SDS011;3644;53.480;10.004;2022-12-18T06:44:29;16.33;;;8.63;;
7205;SDS011;3644;53.480;10.004;2022-12-18T06:46:55;14.77;;;7.87;;
7205;SDS011;3644;53.480;10.004;2022-12-18T06:49:20;13.87;;;8.80;;
7205;SDS011;3644;53.480;10.004;2022-12-18T06:51:46;14.37;;;9.37;;
7205;SDS011;3644;53.480;10.004;2022-12-18T06:54:12;16.10;;;9.27;;
7205;SDS011;3644;53.480;10.004;2022-12-18T06:56:37;12.63;;;8.47;;
7205;SDS011;3644;53.480;10.004;2022-12-18T06:59:03;12.80;;;7.60;;
7205;SDS011;3644;53.480;10.004;2022-12-18T07:01:28;12.77;;;7.63;;
7205;SDS011;3644;53.480;10.004;2022-12-18T07:03:54;14.57;;;8.83;;
7205;SDS011;3644;53.480;10.004;2022-12-18T07:06:21;11.93;;;8.67;;
7205;SDS011;3644;53.480;10.004;2022-12-18T07:08:48;16.40;;;9.13;;
7205;SDS011;3644;53.480;10.004;2022-12-18T07:11:15;16.83;;;9.40;;
7205;SDS011;3644;53.480;10.004;2022-12-18T07:13:41;13.60;;;8.53;;
7205;SDS011;3644;53.480;10.004;2022-12-18T07:16:07;13.90;;;8.53;;
7205;SDS011;3644;53.480;10.004;2022-12-18T07:18:35;18.60;;;8.40;;
7205;SDS011;3644;53.480;10.004;2022-12-18T07:21:07;14.87;;;10.40;;
7205;SDS011;3644;53.480;10.004;2022-12-18T07:23:35;20.73;;;10.00;;
7205;SDS011;3644;53.480;10.004;2022-12-18T07:26:04;15.60;;;8.50;;
7205;SDS011;3644;53.480;10.004;2022-12-18T07:28:32;16.03;;;10.60;;
7205;SDS011;3644;53.480;10.004;2022-12-18T07:31:01;14.77;;;8.23;;
7205;SDS011;3644;53.480;10.004;2022-12-18T07:33:28;17.70;;;9.53;;
7205;SDS011;3644;53.480;10.004;2022-12-18T07:35:54;23.63;;;11.30;;
7205;SDS011;3644;53.480;10.004;2022-12-18T07:38:19;12.57;;;8.27;;
7205;SDS011;3644;53.480;10.004;2022-12-18T07:40:45;12.37;;;8.10;;
7205;SDS011;3644;53.480;10.004;2022-12-18T07:43:10;14.20;;;8.57;;
7205;SDS011;3644;53.480;10.004;2022-12-18T07:45:36;18.23;;;8.33;;
7205;SDS011;3644;53.480;10.004;2022-12-18T07:48:01;16.90;;;9.67;;
7205;SDS011;3644;53.480;10.004;2022-12-18T07:50:27;17.53;;;9.10;;
7205;SDS011;3644;53.480;10.004;2022-12-18T07:52:52;13.30;;;8.67;;
7205;SDS011;3644;53.480;10.004;2022-12-18T07:55:18;17.50;;;8.60;;
7205;SDS011;3644;53.480;10.004;2022-12-18T07:57:43;12.07;;;9.20;;
7205;SDS011;3644;53.480;10.004;2022-12-18T08:00:09;20.83;;;9.80;;
7205;SDS011;3644;53.480;10.004;2022-12-18T08:02:35;13.10;;;8.33;;
7205;SDS011;3644;53.480;10.004;2022-12-18T08:05:01;19.50;;;10.67;;
7205;SDS011;3644;53.480;10.004;2022-12-18T08:07:26;12.67;;;7.70;;
7205;SDS011;3644;53.480;10.004;2022-12-18T08:09:52;19.80;;;8.70;;
7205;SDS011;3644;53.480;10.004;2022-12-18T08:12:17;19.23;;;9.00;;
7205;SDS011;3644;53.480;10.004;2022-12-18T08:14:43;18.20;;;10.10;;
7205;SDS011;3644;53.480;10.004;2022-12-18T08:17:08;25.50;;;8.80;;
7205;SDS011;3644;53.480;10.004;2022-12-18T08:19:33;17.00;;;9.30;;
7205;SDS011;3644;53.480;10.004;2022-12-18T08:21:59;14.77;;;9.30;;
7205;SDS011;3644;53.480;10.004;2022-12-18T08:24:24;18.60;;;9.17;;
7205;SDS011;3644;53.480;10.004;2022-12-18T08:26:50;13.27;;;8.60;;
7205;SDS011;3644;53.480;10.004;2022-12-18T08:29:16;16.63;;;10.00;;
7205;SDS011;3644;53.480;10.004;2022-12-18T08:31:41;13.50;;;9.63;;
7205;SDS011;3644;53.480;10.004;2022-12-18T08:34:07;21.03;;;9.57;;
7205;SDS011;3644;53.480;10.004;2022-12-18T08:36:34;16.53;;;9.87;;
7205;SDS011;3644;53.480;10.004;2022-12-18T08:39:00;16.63;;;9.60;;
7205;SDS011;3644;53.480;10.004;2022-12-18T08:41:25;14.80;;;9.10;;
7205;SDS011;3644;53.480;10.004;2022-12-18T08:43:51;26.40;;;10.20;;
7205;SDS011;3644;53.480;10.004;2022-12-18T08:46:39;21.20;;;10.07;;
7205;SDS011;3644;53.480;10.004;2022-12-18T08:49:07;13.73;;;8.13;;
7205;SDS011;3644;53.480;10.004;2022-12-18T08:51:33;16.80;;;9.30;;
7205;SDS011;3644;53.480;10.004;2022-12-18T08:53:59;14.50;;;9.00;;
7205;SDS011;3644;53.480;10.004;2022-12-18T08:56:25;15.67;;;9.40;;
7205;SDS011;3644;53.480;10.004;2022-12-18T08:58:51;17.50;;;10.10;;
7205;SDS011;3644;53.480;10.004;2022-12-18T09:01:18;16.33;;;9.50;;
7205;SDS011;3644;53.480;10.004;2022-12-18T09:03:46;13.43;;;9.20;;
7205;SDS011;3644;53.480;10.004;2022-12-18T09:06:13;16.47;;;11.20;;
7205;SDS011;3644;53.480;10.004;2022-12-18T09:08:40;14.83;;;9.20;;
7205;SDS011;3644;53.480;10.004;2022-12-18T09:11:11;14.53;;;9.27;;
7205;SDS011;3644;53.480;10.004;2022-12-18T09:13:38;20.60;;;10.70;;
7205;SDS011;3644;53.480;10.004;2022-12-18T09:16:03;17.23;;;9.70;;
7205;SDS011;3644;53.480;10.004;2022-12-18T09:18:29;11.27;;;7.97;;
7205;SDS011;3644;53.480;10.004;2022-12-18T09:20:55;16.90;;;8.80;;
7205;SDS011;3644;53.480;10.004;2022-12-18T09:23:21;11.90;;;7.83;;
7205;SDS011;3644;53.480;10.004;2022-12-18T09:25:46;13.27;;;8.13;;
7205;SDS011;3644;53.480;10.004;2022-12-18T09:28:16;15.63;;;8.10;;
7205;SDS011;3644;53.480;10.004;2022-12-18T09:30:46;14.70;;;8.57;;
7205;SDS011;3644;53.480;10.004;2022-12-18T09:33:13;28.60;;;8.87;;
7205;SDS011;3644;53.480;10.004;2022-12-18T09:35:40;13.23;;;7.83;;
7205;SDS011;3644;53.480;10.004;2022-12-18T09:38:07;15.50;;;9.17;;
7205;SDS011;3644;53.480;10.004;2022-12-18T09:40:41;15.10;;;8.60;;
7205;SDS011;3644;53.480;10.004;2022-12-18T09:43:13;17.20;;;9.00;;
7205;SDS011;3644;53.480;10.004;2022-12-18T09:45:46;16.30;;;8.73;;
7205;SDS011;3644;53.480;10.004;2022-12-18T09:48:26;16.27;;;9.03;;
7205;SDS011;3644;53.480;10.004;2022-12-18T09:50:57;13.00;;;9.00;;
7205;SDS011;3644;53.480;10.004;2022-12-18T09:53:28;15.40;;;8.80;;
7205;SDS011;3644;53.480;10.004;2022-12-18T09:55:57;12.93;;;8.60;;
7205;SDS011;3644;53.480;10.004;2022-12-18T09:58:28;20.20;;;9.73;;
7205;SDS011;3644;53.480;10.004;2022-12-18T10:01:00;19.30;;;9.73;;
7205;SDS011;3644;53.480;10.004;2022-12-18T10:03:25;15.57;;;9.50;;
7205;SDS011;3644;53.480;10.004;2022-12-18T10:08:37;14.67;;;9.10;;
7205;SDS011;3644;53.480;10.004;2022-12-18T10:13:52;16.13;;;10.07;;
7205;SDS011;3644;53.480;10.004;2022-12-18T10:19:19;16.50;;;9.80;;
7205;SDS011;3644;53.480;10.004;2022-12-18T10:22:10;22.47;;;9.67;;
7205;SDS011;3644;53.480;10.004;2022-12-18T10:27:15;16.23;;;9.50;;
7205;SDS011;3644;53.480;10.004;2022-12-18T10:29:43;17.07;;;10.80;;
7205;SDS011;3644;53.480;10.004;2022-12-18T10:32:14;12.60;;;9.33;;
7205;SDS011;3644;53.480;10.004;2022-12-18T10:34:44;18.07;;;11.47;;
7205;SDS011;3644;53.480;10.004;2022-12-18T10:37:15;16.73;;;9.87;;
7205;SDS011;3644;53.480;10.004;2022-12-18T10:39:43;22.03;;;10.47;;
7205;SDS011;3644;53.480;10.004;2022-12-18T10:42:16;19.27;;;11.27;;
7205;SDS011;3644;53.480;10.004;2022-12-18T10:44:43;23.77;;;11.53;;
7205;SDS011;3644;53.480;10.004;2022-12-18T10:47:14;19.53;;;10.43;;
7205;SDS011;3644;53.480;10.004;2022-12-18T10:49:47;17.70;;;10.03;;
7205;SDS011;3644;53.480;10.004;2022-12-18T10:52:19;17.37;;;10.70;;
7205;SDS011;3644;53.480;10.004;2022-12-18T10:54:54;14.40;;;9.33;;
7205;SDS011;3644;53.480;10.004;2022-12-18T10:59:55;14.93;;;9.40;;
7205;SDS011;3644;53.480;10.004;2022-12-18T11:02:26;15.47;;;9.50;;
7205;SDS011;3644;53.480;10.004;2022-12-18T11:04:57;15.63;;;10.57;;
7205;SDS011;3644;53.480;10.004;2022-12-18T11:07:23;14.87;;;10.63;;
7205;SDS011;3644;53.480;10.004;2022-12-18T11:09:59;18.60;;;10.37;;
7205;SDS011;3644;53.480;10.004;2022-12-18T11:12:28;19.17;;;10.03;;
7205;SDS011;3644;53.480;10.004;2022-12-18T11:14:54;20.63;;;11.77;;
7205;SDS011;3644;53.480;10.004;2022-12-18T11:17:28;13.47;;;9.90;;
7205;SDS011;3644;53.480;10.004;2022-12-18T11:20:00;15.77;;;9.57;;
7205;SDS011;3644;53.480;10.004;2022-12-18T11:24:56;19.40;;;10.40;;
7205;SDS011;3644;53.480;10.004;2022-12-18T11:27:24;18.67;;;10.80;;
7205;SDS011;3644;53.480;10.004;2022-12-18T11:29:50;22.00;;;11.20;;
7205;SDS011;3644;53.480;10.004;2022-12-18T11:35:02;21.20;;;12.60;;
7205;SDS011;3644;53.480;10.004;2022-12-18T11:37:34;14.90;;;9.80;;
7205;SDS011;3644;53.480;10.004;2022-12-18T11:40:10;17.37;;;10.00;;
7205;SDS011;3644;53.480;10.004;2022-12-18T11:50:41;22.40;;;12.87;;
7205;SDS011;3644;53.480;10.004;2022-12-18T11:53:15;28.43;;;12.10;;
7205;SDS011;3644;53.480;10.004;2022-12-18T11:55:43;21.13;;;12.00;;
7205;SDS011;3644;53.480;10.004;2022-12-18T12:03:52;22.20;;;12.27;;
7205;SDS011;3644;53.480;10.004;2022-12-18T12:06:24;23.10;;;12.70;;
7205;SDS011;3644;53.480;10.004;2022-12-18T12:14:34;29.37;;;12.57;;
7205;SDS011;3644;53.480;10.004;2022-12-18T12:20:02;20.83;;;11.90;;
7205;SDS011;3644;53.480;10.004;2022-12-18T12:22:59;25.20;;;13.60;;
7205;SDS011;3644;53.480;10.004;2022-12-18T12:25:37;23.07;;;12.20;;
7205;SDS011;3644;53.480;10.004;2022-12-18T12:31:33;22.20;;;13.63;;
7205;SDS011;3644;53.480;10.004;2022-12-18T12:34:31;21.90;;;12.30;;
7205;SDS011;3644;53.480;10.004;2022-12-18T12:37:11;21.77;;;12.90;;
7205;SDS011;3644;53.480;10.004;2022-12-18T12:39:48;20.63;;;11.43;;
7205;SDS011;3644;53.480;10.004;2022-12-18T12:42:25;33.10;;;16.93;;
7205;SDS011;3644;53.480;10.004;2022-12-18T12:45:18;23.93;;;11.80;;
7205;SDS011;3644;53.480;10.004;2022-12-18T12:48:07;18.30;;;12.10;;
7205;SDS011;3644;53.480;10.004;2022-12-18T12:50:41;23.53;;;13.00;;
7205;SDS011;3644;53.480;10.004;2022-12-18T12:53:07;23.57;;;13.57;;
7205;SDS011;3644;53.480;10.004;2022-12-18T12:55:39;20.30;;;11.83;;
7205;SDS011;3644;53.480;10.004;2022-12-18T13:00:54;20.60;;;11.43;;
7205;SDS011;3644;53.480;10.004;2022-12-18T13:06:29;30.50;;;12.83;;
7205;SDS011;3644;53.480;10.004;2022-12-18T13:09:05;22.93;;;13.30;;
7205;SDS011;3644;53.480;10.004;2022-12-18T13:11:40;26.37;;;13.07;;
7205;SDS011;3644;53.480;10.004;2022-12-18T13:14:31;21.80;;;12.27;;
7205;SDS011;3644;53.480;10.004;2022-12-18T13:19:52;29.17;;;14.63;;
7205;SDS011;3644;53.480;10.004;2022-12-18T13:22:43;33.17;;;15.37;;
7205;SDS011;3644;53.480;10.004;2022-12-18T13:25:30;25.30;;;13.80;;
7205;SDS011;3644;53.480;10.004;2022-12-18T13:28:04;30.37;;;14.90;;
7205;SDS011;3644;53.480;10.004;2022-12-18T13:43:48;29.00;;;14.77;;
7205;SDS011;3644;53.480;10.004;2022-12-18T13:46:19;32.33;;;15.97;;
7205;SDS011;3644;53.480;10.004;2022-12-18T13:48:52;36.50;;;19.30;;
7205;SDS011;3644;53.480;10.004;2022-12-18T13:51:23;31.93;;;16.43;;
7205;SDS011;3644;53.480;10.004;2022-12-18T13:53:51;36.17;;;16.30;;
7205;SDS011;3644;53.480;10.004;2022-12-18T13:56:24;32.20;;;14.90;;
7205;SDS011;3644;53.480;10.004;2022-12-18T13:59:10;29.70;;;15.10;;
7205;SDS011;3644;53.480;10.004;2022-12-18T14:01:57;37.10;;;13.27;;
7205;SDS011;3644;53.480;10.004;2022-12-18T14:04:28;35.97;;;16.00;;
7205;SDS011;3644;53.480;10.004;2022-12-18T14:06:55;28.60;;;14.47;;
7205;SDS011;3644;53.480;10.004;2022-12-18T14:09:31;24.10;;;14.07;;
7205;SDS011;3644;53.480;10.004;2022-12-18T14:12:01;25.57;;;13.70;;
7205;SDS011;3644;53.480;10.004;2022-12-18T14:14:46;31.13;;;14.20;;
7205;SDS011;3644;53.480;10.004;2022-12-18T14:17:15;34.77;;;15.23;;
7205;SDS011;3644;53.480;10.004;2022-12-18T14:19:42;30.20;;;14.97;;
7205;SDS011;3644;53.480;10.004;2022-12-18T14:22:16;26.57;;;13.13;;
7205;SDS011;3644;53.480;10.004;2022-12-18T14:24:44;35.53;;;15.80;;
7205;SDS011;3644;53.480;10.004;2022-12-18T14:27:21;31.37;;;15.67;;
7205;SDS011;3644;53.480;10.004;2022-12-18T14:29:49;29.90;;;15.33;;
7205;SDS011;3644;53.480;10.004;2022-12-18T14:32:16;30.33;;;15.00;;
7205;SDS011;3644;53.480;10.004;2022-12-18T14:34:43;26.30;;;14.37;;
7205;SDS011;3644;53.480;10.004;2022-12-18T14:37:15;32.73;;;15.30;;
7205;SDS011;3644;53.480;10.004;2022-12-18T14:39:57;27.93;;;14.33;;
7205;SDS011;3644;53.480;10.004;2022-12-18T14:42:30;39.23;;;16.33;;
7205;SDS011;3644;53.480;10.004;2022-12-18T14:50:42;32.67;;;16.40;;
7205;SDS011;3644;53.480;10.004;2022-12-18T14:53:18;33.23;;;16.07;;
7205;SDS011;3644;53.480;10.004;2022-12-18T14:55:46;32.23;;;16.80;;
7205;SDS011;3644;53.480;10.004;2022-12-18T14:58:13;32.93;;;15.47;;
7205;SDS011;3644;53.480;10.004;2022-12-18T15:00:41;38.13;;;17.37;;
7205;SDS011;3644;53.480;10.004;2022-12-18T15:03:07;42.60;;;18.70;;
7205;SDS011;3644;53.480;10.004;2022-12-18T15:05:34;34.07;;;16.43;;
7205;SDS011;3644;53.480;10.004;2022-12-18T15:08:00;42.53;;;18.13;;
7205;SDS011;3644;53.480;10.004;2022-12-18T15:10:31;45.10;;;17.70;;
7205;SDS011;3644;53.480;10.004;2022-12-18T15:20:38;29.50;;;14.97;;
7205;SDS011;3644;53.480;10.004;2022-12-18T15:23:18;36.70;;;15.87;;
7205;SDS011;3644;53.480;10.004;2022-12-18T15:25:47;31.33;;;16.23;;
7205;SDS011;3644;53.480;10.004;2022-12-18T15:28:23;33.50;;;15.53;;
7205;SDS011;3644;53.480;10.004;2022-12-18T15:33:40;37.00;;;15.63;;
7205;SDS011;3644;53.480;10.004;2022-12-18T15:36:11;45.10;;;17.87;;
7205;SDS011;3644;53.480;10.004;2022-12-18T15:38:38;37.40;;;16.77;;
7205;SDS011;3644;53.480;10.004;2022-12-18T15:41:13;35.57;;;16.90;;
7205;SDS011;3644;53.480;10.004;2022-12-18T15:43:40;33.80;;;15.57;;
7205;SDS011;3644;53.480;10.004;2022-12-18T15:46:09;38.67;;;19.20;;
7205;SDS011;3644;53.480;10.004;2022-12-18T15:48:41;36.10;;;16.60;;
7205;SDS011;3644;53.480;10.004;2022-12-18T15:51:13;35.83;;;15.73;;
7205;SDS011;3644;53.480;10.004;2022-12-18T15:53:59;36.80;;;16.07;;
7205;SDS011;3644;53.480;10.004;2022-12-18T15:56:28;41.93;;;17.30;;
7205;SDS011;3644;53.480;10.004;2022-12-18T15:59:13;32.13;;;17.50;;
7205;SDS011;3644;53.480;10.004;2022-12-18T16:01:40;29.80;;;15.47;;
7205;SDS011;3644;53.480;10.004;2022-12-18T16:04:10;39.00;;;17.87;;
7205;SDS011;3644;53.480;10.004;2022-12-18T16:06:37;31.27;;;17.37;;
7205;SDS011;3644;53.480;10.004;2022-12-18T16:09:02;42.13;;;17.43;;
7205;SDS011;3644;53.480;10.004;2022-12-18T16:11:28;35.17;;;16.50;;
7205;SDS011;3644;53.480;10.004;2022-12-18T16:16:37;36.53;;;17.27;;
7205;SDS011;3644;53.480;10.004;2022-12-18T16:19:02;32.63;;;14.93;;
7205;SDS011;3644;53.480;10.004;2022-12-18T16:21:28;32.53;;;16.23;;
7205;SDS011;3644;53.480;10.004;2022-12-18T16:23:53;36.63;;;17.13;;
7205;SDS011;3644;53.480;10.004;2022-12-18T16:26:18;34.17;;;15.40;;
7205;SDS011;3644;53.480;10.004;2022-12-18T16:28:44;31.47;;;15.03;;